createdAt,value
2022-09-12T00:00:05.085Z,1006
2022-09-12T00:03:05.115Z,1006
2022-09-12T00:06:05.098Z,1006
2022-09-12T00:09:05.100Z,1006
2022-09-12T00:12:05.074Z,1006
2022-09-12T00:15:05.083Z,1006
2022-09-12T00:18:05.075Z,1006
2022-09-12T00:21:05.106Z,1006
2022-09-12T00:24:05.087Z,1006
2022-09-12T00:27:05.124Z,1006
2022-09-12T00:30:05.096Z,1006
2022-09-12T00:33:05.099Z,1006
2022-09-12T00:36:05.085Z,1006
2022-09-12T00:39:05.055Z,1006
2022-09-12T00:42:05.044Z,1006
2022-09-12T00:45:05.073Z,1006
2022-09-12T00:48:05.081Z,1006
2022-09-12T00:51:05.109Z,1006
2022-09-12T00:54:05.092Z,1006
2022-09-12T00:57:05.158Z,1006
2022-09-12T01:00:05.101Z,1006
2022-09-12T01:03:05.082Z,1006
2022-09-12T01:06:05.096Z,1006
2022-09-12T01:09:05.086Z,1006
2022-09-12T01:12:05.077Z,1005
2022-09-12T01:15:05.077Z,1005
2022-09-12T01:18:05.109Z,1005
2022-09-12T01:21:05.088Z,1005
2022-09-12T01:24:05.085Z,1006
2022-09-12T01:27:05.090Z,1006
2022-09-12T01:30:05.097Z,1006
2022-09-12T01:33:05.142Z,1006
2022-09-12T01:36:05.074Z,1006
2022-09-12T01:39:05.091Z,1006
2022-09-12T01:42:05.073Z,1006
2022-09-12T01:45:05.090Z,1006
2022-09-12T01:48:05.072Z,1006
2022-09-12T01:51:05.055Z,1005
2022-09-12T01:54:05.088Z,1005
2022-09-12T01:57:05.041Z,1005
2022-09-12T02:00:05.114Z,1005
2022-09-12T02:03:05.060Z,1005
2022-09-12T02:06:05.115Z,1005
2022-09-12T02:09:05.078Z,1005
2022-09-12T02:12:05.092Z,1005
2022-09-12T02:15:05.103Z,1005
2022-09-12T02:18:05.148Z,1005
2022-09-12T02:21:05.073Z,1006
2022-09-12T02:24:05.092Z,1006
2022-09-12T02:27:05.041Z,1006
2022-09-12T02:30:05.114Z,1006
2022-09-12T02:33:05.084Z,1006
2022-09-12T02:36:05.136Z,1006
2022-09-12T02:39:05.089Z,1006
2022-09-12T02:42:05.055Z,1006
2022-09-12T02:45:05.099Z,1006
2022-09-12T02:48:05.096Z,1005
2022-09-12T02:51:05.062Z,1005
2022-09-12T02:54:05.090Z,1005
2022-09-12T02:57:05.097Z,1005
2022-09-12T03:00:05.171Z,1005
2022-09-12T03:03:05.076Z,1005
2022-09-12T03:06:05.061Z,1005
2022-09-12T03:09:05.139Z,1005
2022-09-12T03:12:05.169Z,1005
2022-09-12T03:15:05.092Z,1005
2022-09-12T03:18:05.075Z,1005
2022-09-12T03:21:05.114Z,1005
2022-09-12T03:24:05.133Z,1005
2022-09-12T03:27:05.054Z,1005
2022-09-12T03:30:05.169Z,1005
2022-09-12T03:33:05.062Z,1005
2022-09-12T03:36:05.071Z,1005
2022-09-12T03:39:05.087Z,1005
2022-09-12T03:42:05.063Z,1005
2022-09-12T03:45:05.083Z,1005
2022-09-12T03:48:05.100Z,1005
2022-09-12T03:51:05.026Z,1005
2022-09-12T03:54:05.111Z,1005
2022-09-12T03:57:05.091Z,1005
2022-09-12T04:00:05.161Z,1005
2022-09-12T04:03:05.054Z,1005
2022-09-12T04:06:05.110Z,1005
2022-09-12T04:09:05.106Z,1005
2022-09-12T04:12:05.112Z,1005
2022-09-12T04:15:05.115Z,1005
2022-09-12T04:18:10.690Z,1005
2022-09-12T04:21:05.085Z,1005
2022-09-12T04:24:05.128Z,1005
2022-09-12T04:27:11.987Z,1005
2022-09-12T04:30:05.098Z,1005
2022-09-12T04:33:12.270Z,1005
2022-09-12T04:36:05.123Z,1005
2022-09-12T04:39:05.132Z,1005
2022-09-12T04:42:05.072Z,1005
2022-09-12T04:45:05.378Z,1005
2022-09-12T04:48:05.066Z,1005
2022-09-12T04:51:05.149Z,1005
2022-09-12T04:54:05.063Z,1005
2022-09-12T04:57:05.117Z,1005
2022-09-12T05:00:11.736Z,1006
2022-09-12T05:03:05.101Z,1006
2022-09-12T05:06:05.117Z,1006
2022-09-12T05:09:05.194Z,1006
2022-09-12T05:12:10.151Z,1006
2022-09-12T05:15:05.116Z,1006
2022-09-12T05:18:05.082Z,1006
2022-09-12T05:21:05.103Z,1006
2022-09-12T05:24:05.201Z,1006
2022-09-12T05:27:05.131Z,1006
2022-09-12T05:30:05.368Z,1006
2022-09-12T05:33:05.180Z,1006
2022-09-12T05:36:05.164Z,1006
2022-09-12T05:39:05.156Z,1006
2022-09-12T05:42:05.121Z,1006
2022-09-12T05:45:05.176Z,1006
2022-09-12T05:48:05.133Z,1006
2022-09-12T05:51:05.162Z,1006
2022-09-12T05:54:05.103Z,1006
2022-09-12T05:57:05.184Z,1006
2022-09-12T06:00:05.265Z,1006
2022-09-12T06:03:05.131Z,1005
2022-09-12T06:06:05.159Z,1005
2022-09-12T06:09:05.165Z,1005
2022-09-12T06:12:05.251Z,1005
2022-09-12T06:15:05.144Z,1005
2022-09-12T06:18:05.146Z,1005
2022-09-12T06:21:05.102Z,1005
2022-09-12T06:24:05.167Z,1005
2022-09-12T06:27:05.174Z,1005
2022-09-12T06:30:05.201Z,1005
2022-09-12T06:33:05.154Z,1005
2022-09-12T06:36:07.922Z,1005
2022-09-12T06:39:05.913Z,1005
2022-09-12T06:42:05.262Z,1005
2022-09-12T06:45:05.186Z,1005
2022-09-12T06:48:05.172Z,1006
2022-09-12T06:51:05.159Z,1006
2022-09-12T06:54:05.175Z,1006
2022-09-12T06:57:05.237Z,1006
2022-09-12T07:00:05.300Z,1006
2022-09-12T07:03:05.236Z,1006
2022-09-12T07:06:05.160Z,1005
2022-09-12T07:09:05.150Z,1005
2022-09-12T07:12:05.134Z,1005
2022-09-12T07:15:05.184Z,1005
2022-09-12T07:18:05.141Z,1005
2022-09-12T07:21:05.113Z,1005
2022-09-12T07:24:05.134Z,1005
2022-09-12T07:27:05.153Z,1005
2022-09-12T07:30:05.152Z,1005
2022-09-12T07:33:05.152Z,1005
2022-09-12T07:36:05.248Z,1005
2022-09-12T07:39:05.120Z,1006
2022-09-12T07:42:05.144Z,1006
2022-09-12T07:45:05.132Z,1006
2022-09-12T07:48:05.204Z,1005
2022-09-12T07:51:05.157Z,1005
2022-09-12T07:54:05.177Z,1005
2022-09-12T07:57:05.355Z,1005
2022-09-12T08:00:05.159Z,1005
2022-09-12T08:03:05.117Z,1005
2022-09-12T08:06:05.140Z,1005
2022-09-12T08:09:05.213Z,1005
2022-09-12T08:12:05.165Z,1005
2022-09-12T08:15:05.192Z,1005
2022-09-12T08:18:05.166Z,1005
2022-09-12T08:21:05.126Z,1005
2022-09-12T08:24:05.133Z,1005
2022-09-12T08:27:05.205Z,1005
2022-09-12T08:30:05.169Z,1005
2022-09-12T08:33:05.097Z,1005
2022-09-12T08:36:05.135Z,1006
2022-09-12T08:39:05.259Z,1005
2022-09-12T08:42:05.598Z,1005
2022-09-12T08:45:05.155Z,1005
2022-09-12T08:48:05.173Z,1005
2022-09-12T08:51:05.126Z,1005
2022-09-12T08:54:05.163Z,1005
2022-09-12T08:57:05.118Z,1005
2022-09-12T09:00:05.217Z,1005
2022-09-12T09:03:05.110Z,1005
2022-09-12T09:06:05.127Z,1005
2022-09-12T09:09:05.166Z,1005
2022-09-12T09:12:05.139Z,1005
2022-09-12T09:15:05.183Z,1005
2022-09-12T09:18:05.120Z,1005
2022-09-12T09:21:05.122Z,1005
2022-09-12T09:24:05.083Z,1005
2022-09-12T09:27:11.076Z,1005
2022-09-12T09:30:05.183Z,1005
2022-09-12T09:33:05.161Z,1005
2022-09-12T09:36:05.118Z,1005
2022-09-12T09:39:05.155Z,1005
2022-09-12T09:42:05.175Z,1005
2022-09-12T09:45:05.176Z,1005
2022-09-12T09:48:05.337Z,1005
2022-09-12T09:51:05.089Z,1005
2022-09-12T09:54:05.125Z,1005
2022-09-12T09:57:05.115Z,1005
2022-09-12T10:00:05.254Z,1005
2022-09-12T10:03:05.250Z,1005
2022-09-12T10:06:05.147Z,1005
2022-09-12T10:09:05.156Z,1005
2022-09-12T10:12:05.150Z,1005
2022-09-12T10:15:05.134Z,1004
2022-09-12T10:18:05.133Z,1004
2022-09-12T10:21:05.145Z,1004
2022-09-12T10:24:05.144Z,1005
2022-09-12T10:27:05.134Z,1005
2022-09-12T10:30:05.194Z,1005
2022-09-12T10:33:05.124Z,1004
2022-09-12T10:36:05.181Z,1004
2022-09-12T10:39:05.149Z,1004
2022-09-12T10:42:05.178Z,1004
2022-09-12T10:45:05.124Z,1004
2022-09-12T10:48:12.186Z,1004
2022-09-12T10:51:05.121Z,1004
2022-09-12T10:54:05.167Z,1004
2022-09-12T10:57:05.281Z,1004
2022-09-12T11:00:05.196Z,1004
2022-09-12T11:03:05.111Z,1004
2022-09-12T11:06:05.143Z,1004
2022-09-12T11:09:05.169Z,1004
2022-09-12T11:12:05.197Z,1004
2022-09-12T11:15:05.211Z,1004
2022-09-12T11:18:05.126Z,1004
2022-09-12T11:21:05.148Z,1004
2022-09-12T11:24:05.148Z,1004
2022-09-12T11:27:05.202Z,1004
2022-09-12T11:30:05.201Z,1004
2022-09-12T11:33:05.133Z,1004
2022-09-12T11:36:05.115Z,1004
2022-09-12T11:39:05.119Z,1004
2022-09-12T11:42:05.125Z,1004
2022-09-12T11:45:05.161Z,1004
2022-09-12T11:48:05.155Z,1004
2022-09-12T11:51:05.126Z,1004
2022-09-12T11:54:05.209Z,1004
2022-09-12T11:57:05.108Z,1004
2022-09-12T12:00:05.254Z,1004
2022-09-12T12:03:05.109Z,1004
2022-09-12T12:06:05.105Z,1004
2022-09-12T12:09:05.167Z,1004
2022-09-12T12:12:05.107Z,1004
2022-09-12T12:15:05.226Z,1004
2022-09-12T12:18:05.222Z,1004
2022-09-12T12:21:05.206Z,1004
2022-09-12T12:24:05.106Z,1003
2022-09-12T12:27:05.180Z,1003
2022-09-12T12:30:05.271Z,1003
2022-09-12T12:33:05.174Z,1003
2022-09-12T12:36:05.132Z,1003
2022-09-12T12:39:05.121Z,1003
2022-09-12T12:42:05.133Z,1003
2022-09-12T12:45:05.154Z,1003
2022-09-12T12:48:11.979Z,1003
2022-09-12T12:51:05.122Z,1003
2022-09-12T12:54:06.964Z,1003
2022-09-12T12:57:05.125Z,1003
2022-09-12T13:00:05.247Z,1003
2022-09-12T13:03:05.134Z,1003
2022-09-12T13:06:05.177Z,1003
2022-09-12T13:09:05.166Z,1003
2022-09-12T13:12:05.899Z,1004
2022-09-12T13:15:05.127Z,1004
2022-09-12T13:18:05.120Z,1004
2022-09-12T13:21:05.178Z,1003
2022-09-12T13:24:05.133Z,1003
2022-09-12T13:27:05.139Z,1003
2022-09-12T13:30:05.325Z,1003
2022-09-12T13:33:05.182Z,1003
2022-09-12T13:36:05.153Z,1003
2022-09-12T13:39:05.184Z,1003
2022-09-12T13:42:05.179Z,1003
2022-09-12T13:45:05.087Z,1003
2022-09-12T13:48:05.167Z,1003
2022-09-12T13:51:05.123Z,1003
2022-09-12T13:54:05.157Z,1003
2022-09-12T13:57:05.246Z,1003
2022-09-12T14:00:05.198Z,1003
2022-09-12T14:03:05.181Z,1003
2022-09-12T14:06:05.121Z,1003
2022-09-12T14:09:05.211Z,1003
2022-09-12T14:12:05.286Z,1003
2022-09-12T14:15:05.181Z,1003
2022-09-12T14:18:05.241Z,1003
2022-09-12T14:21:05.119Z,1003
2022-09-12T14:24:05.162Z,1003
2022-09-12T14:27:05.167Z,1003
2022-09-12T14:30:05.328Z,1002
2022-09-12T14:33:05.175Z,1002
2022-09-12T14:36:05.194Z,1002
2022-09-12T14:39:05.174Z,1002
2022-09-12T14:42:05.202Z,1002
2022-09-12T14:45:05.242Z,1002
2022-09-12T14:48:05.300Z,1002
2022-09-12T14:51:05.139Z,1002
2022-09-12T14:54:05.153Z,1002
2022-09-12T14:57:05.217Z,1002
2022-09-12T15:00:05.257Z,1003
2022-09-12T15:03:05.146Z,1003
2022-09-12T15:06:05.234Z,1003
2022-09-12T15:09:05.197Z,1003
2022-09-12T15:12:05.132Z,1003
2022-09-12T15:15:05.241Z,1003
2022-09-12T15:18:11.178Z,1003
2022-09-12T15:21:05.240Z,1003
2022-09-12T15:24:05.221Z,1003
2022-09-12T15:27:05.172Z,1003
2022-09-12T15:30:05.414Z,1003
2022-09-12T15:33:05.159Z,1003
2022-09-12T15:36:05.171Z,1003
2022-09-12T15:39:05.221Z,1003
2022-09-12T15:42:05.124Z,1003
2022-09-12T15:45:07.438Z,1003
2022-09-12T15:48:05.181Z,1003
2022-09-12T15:51:05.149Z,1003
2022-09-12T15:54:05.210Z,1002
2022-09-12T15:57:05.165Z,1002
2022-09-12T16:00:05.222Z,1002
2022-09-12T16:03:05.512Z,1002
2022-09-12T16:06:05.144Z,1002
2022-09-12T16:09:05.298Z,1002
2022-09-12T16:12:05.153Z,1002
2022-09-12T16:15:05.119Z,1002
2022-09-12T16:18:05.212Z,1002
2022-09-12T16:21:05.132Z,1002
2022-09-12T16:24:05.243Z,1002
2022-09-12T16:27:06.134Z,1002
2022-09-12T16:30:05.338Z,1002
2022-09-12T16:33:05.187Z,1002
2022-09-12T16:36:05.141Z,1002
2022-09-12T16:39:05.126Z,1002
2022-09-12T16:42:05.115Z,1002
2022-09-12T16:45:05.162Z,1002
2022-09-12T16:48:05.172Z,1002
2022-09-12T16:51:05.139Z,1002
2022-09-12T16:54:05.162Z,1002
2022-09-12T16:57:05.164Z,1001
2022-09-12T17:00:05.248Z,1001
2022-09-12T17:03:05.365Z,1001
2022-09-12T17:06:05.170Z,1001
2022-09-12T17:09:05.162Z,1001
2022-09-12T17:12:05.193Z,1001
2022-09-12T17:15:05.200Z,1001
2022-09-12T17:18:05.149Z,1001
2022-09-12T17:21:05.117Z,1001
2022-09-12T17:24:05.121Z,1001
2022-09-12T17:27:05.082Z,1001
2022-09-12T17:30:05.369Z,1001
2022-09-12T17:33:05.103Z,1001
2022-09-12T17:36:05.297Z,1001
2022-09-12T17:39:05.070Z,1001
2022-09-12T17:42:05.173Z,1002
2022-09-12T17:45:05.167Z,1002
2022-09-12T17:48:05.123Z,1002
2022-09-12T17:51:05.095Z,1002
2022-09-12T17:54:05.138Z,1002
2022-09-12T17:57:05.101Z,1001
2022-09-12T18:00:05.153Z,1001
2022-09-12T18:03:05.271Z,1001
2022-09-12T18:06:05.070Z,1001
2022-09-12T18:09:05.125Z,1001
2022-09-12T18:12:05.072Z,1001
2022-09-12T18:15:05.087Z,1001
2022-09-12T18:18:05.067Z,1001
2022-09-12T18:21:05.071Z,1001
2022-09-12T18:24:05.072Z,1001
2022-09-12T18:27:05.089Z,1001
2022-09-12T18:30:26.156Z,1001
2022-09-12T18:33:05.117Z,1001
2022-09-12T18:36:05.123Z,1001
2022-09-12T18:39:05.114Z,1001
2022-09-12T18:42:05.072Z,1001
2022-09-12T18:45:05.124Z,1001
2022-09-12T18:48:05.130Z,1001
2022-09-12T18:51:05.090Z,1001
2022-09-12T18:54:05.118Z,1001
2022-09-12T18:57:05.110Z,1001
2022-09-12T19:00:07.298Z,1001
2022-09-12T19:03:05.054Z,1001
2022-09-12T19:06:05.084Z,1001
2022-09-12T19:09:12.326Z,1001
2022-09-12T19:12:05.235Z,1001
2022-09-12T19:15:05.135Z,1001
2022-09-12T19:18:05.099Z,1001
2022-09-12T19:21:05.113Z,1001
2022-09-12T19:24:05.055Z,1001
2022-09-12T19:27:05.120Z,1001
2022-09-12T19:30:05.070Z,1001
2022-09-12T19:33:05.082Z,1001
2022-09-12T19:36:05.099Z,1001
2022-09-12T19:39:05.035Z,1001
2022-09-12T19:42:05.110Z,1001
2022-09-12T19:45:05.105Z,1001
2022-09-12T19:48:05.085Z,1001
2022-09-12T19:51:05.069Z,1001
2022-09-12T19:54:05.105Z,1001
2022-09-12T19:57:05.127Z,1001
2022-09-12T20:00:05.161Z,1001
2022-09-12T20:03:05.122Z,1001
2022-09-12T20:06:05.074Z,1001
2022-09-12T20:09:05.026Z,1001
2022-09-12T20:12:05.030Z,1001
2022-09-12T20:15:05.083Z,1001
2022-09-12T20:18:05.036Z,1001
2022-09-12T20:21:05.331Z,1001
2022-09-12T20:24:05.067Z,1001
2022-09-12T20:27:05.020Z,1001
2022-09-12T20:30:05.078Z,1001
2022-09-12T20:33:05.044Z,1001
2022-09-12T20:36:05.060Z,1001
2022-09-12T20:39:05.059Z,1001
2022-09-12T20:42:05.021Z,1001
2022-09-12T20:45:05.147Z,1001
2022-09-12T20:48:05.078Z,1000
2022-09-12T20:51:05.044Z,1000
2022-09-12T20:54:05.021Z,1000
2022-09-12T20:57:05.047Z,1000
2022-09-12T21:00:05.135Z,1000
2022-09-12T21:03:05.025Z,1000
2022-09-12T21:06:05.074Z,1000
2022-09-12T21:09:05.337Z,1000
2022-09-12T21:12:05.028Z,1000
2022-09-12T21:15:05.027Z,1000
2022-09-12T21:18:05.048Z,1000
2022-09-12T21:21:05.067Z,1000
2022-09-12T21:24:05.035Z,1000
2022-09-12T21:27:09.160Z,1000
2022-09-12T21:30:05.045Z,1000
2022-09-12T21:33:05.035Z,1000
2022-09-12T21:36:05.046Z,1000
2022-09-12T21:39:05.112Z,1000
2022-09-12T21:42:05.216Z,1000
2022-09-12T21:45:05.056Z,1000
2022-09-12T21:48:05.062Z,1000
2022-09-12T21:51:05.013Z,1000
2022-09-12T21:54:05.070Z,1000
2022-09-12T21:57:05.031Z,1000
2022-09-12T22:00:05.212Z,1000
2022-09-12T22:03:05.029Z,1000
2022-09-12T22:06:05.020Z,1000
2022-09-12T22:09:05.029Z,1000
2022-09-12T22:12:05.034Z,999
2022-09-12T22:15:43.701Z,999
2022-09-12T22:18:05.080Z,1000
2022-09-12T22:21:05.080Z,1000
2022-09-12T22:24:05.072Z,1000
2022-09-12T22:27:05.069Z,999
2022-09-12T22:30:05.123Z,999
2022-09-12T22:33:05.042Z,999
2022-09-12T22:36:05.105Z,999
2022-09-12T22:39:05.105Z,999
2022-09-12T22:42:05.107Z,999
2022-09-12T22:45:05.117Z,999
2022-09-12T22:48:11.377Z,999
2022-09-12T22:51:05.116Z,999
2022-09-12T22:54:05.088Z,999
2022-09-12T22:57:05.063Z,999
2022-09-12T23:00:05.163Z,999
2022-09-12T23:03:05.324Z,999
2022-09-12T23:06:05.110Z,999
2022-09-12T23:09:05.104Z,999
2022-09-12T23:12:05.144Z,999
2022-09-12T23:15:05.096Z,999
2022-09-12T23:18:07.196Z,999
2022-09-12T23:21:05.089Z,999
2022-09-12T23:24:05.058Z,999
2022-09-12T23:27:05.135Z,999
2022-09-12T23:30:05.089Z,999
2022-09-12T23:33:05.090Z,999
2022-09-12T23:36:05.142Z,999
2022-09-12T23:39:05.122Z,999
2022-09-12T23:42:05.135Z,999
2022-09-12T23:45:05.111Z,999
2022-09-12T23:48:05.130Z,999
2022-09-12T23:51:05.061Z,999
2022-09-12T23:54:05.164Z,999
2022-09-12T23:57:05.042Z,999
